This is the latest recevied weather packets stored in our database for station/object WX7EM. If no packets are shown the sender has not sent any weather packets the latest 10 day(s).
| Time | Temp. | Humidity | Pressure | Rain* | Wind** | Luminosity | Snow |
|---|---|---|---|---|---|---|---|
| 1777845985 | 27.22° C | 57% | 1007.9 hPa | 0 mm | - | 80 W/m² | - |
| 1777845681 | 27.22° C | 59% | 1007.9 hPa | 0 mm | - | 80 W/m² | - |
| 1777845378 | 27.22° C | 58% | 1008.3 hPa | 0 mm | - | 77 W/m² | - |
| 1777845074 | 26.67° C | 59% | 1008.3 hPa | 0 mm | - | 80 W/m² | - |
| 1777844774 | 26.67° C | 61% | 1008.3 hPa | 0 mm | - | 140 W/m² | - |
| 1777844469 | 26.11° C | 62% | 1008.2 hPa | 0 mm | - | 97 W/m² | - |
| 1777844169 | 26.67° C | 61% | 1008.4 hPa | 0 mm | - | 255 W/m² | - |
| 1777843864 | 26.67° C | 62% | 1008.6 hPa | 0 mm | - | 178 W/m² | - |
| 1777843561 | 26.11° C | 63% | 1008.5 hPa | 0 mm | - | 694 W/m² | - |
| 1777843259 | 26.11° C | 63% | 1008.6 hPa | 0 mm | - | 683 W/m² | - |
| 1777842956 | 25.56° C | 65% | 1008.8 hPa | 0 mm | - | 237 W/m² | - |
| 1777842651 | 25.56° C | 64% | 1008.6 hPa | 0 mm | - | 785 W/m² | - |
| 1777842348 | 25.56° C | 64% | 1008.8 hPa | 0 mm | - | 793 W/m² | - |
| 1777842044 | 25.56° C | 62% | 1008.9 hPa | 0 mm | - | 799 W/m² | - |
| 1777841741 | 25.56° C | 63% | 1008.9 hPa | 0 mm | - | 807 W/m² | - |
| 1777841438 | 25° C | 65% | 1009 hPa | 0 mm | - | 811 W/m² | - |
| 1777841134 | 24.44° C | 65% | 1009 hPa | 0 mm | - | 817 W/m² | - |
| 1777840831 | 25° C | 65% | 1009.2 hPa | 0 mm | - | 822 W/m² | - |
| 1777840529 | 24.44° C | 65% | 1009.1 hPa | 0 mm | - | 825 W/m² | - |
| 1777840226 | 23.89° C | 67% | 1008.9 hPa | 0 mm | - | 829 W/m² | - |
| 1777839923 | 24.44° C | 66% | 1009.2 hPa | 0 mm | - | 834 W/m² | - |
| 1777839621 | 24.44° C | 66% | 1009.4 hPa | 0 mm | - | 837 W/m² | - |
| 1777839319 | 23.89° C | 66% | 1009.3 hPa | 0 mm | - | 839 W/m² | - |
| 1777839016 | 23.89° C | 64% | 1009.5 hPa | 0 mm | - | 841 W/m² | - |
| 1777838712 | 23.89° C | 64% | 1009.6 hPa | 0 mm | - | 841 W/m² | - |
* Rain latest hour (hover to see other rain measurements)
** Current wind speed in m/s (hover to see current wind gust speed)